sensor_id;sensor_type;location;lat;lon;timestamp;P1;durP1;ratioP1;P2;durP2;ratioP2
53801;SDS011;39709;53.334;6.534;2023-03-14T00:00:26;7.50;;;1.87;;
53801;SDS011;39709;53.334;6.534;2023-03-14T00:02:52;10.88;;;1.45;;
53801;SDS011;39709;53.334;6.534;2023-03-14T00:05:18;7.83;;;1.30;;
53801;SDS011;39709;53.334;6.534;2023-03-14T00:07:44;9.55;;;1.55;;
53801;SDS011;39709;53.334;6.534;2023-03-14T00:10:11;3.38;;;0.47;;
53801;SDS011;39709;53.334;6.534;2023-03-14T00:12:39;9.50;;;1.60;;
53801;SDS011;39709;53.334;6.534;2023-03-14T00:15:05;4.78;;;1.02;;
53801;SDS011;39709;53.334;6.534;2023-03-14T00:17:32;8.13;;;1.45;;
53801;SDS011;39709;53.334;6.534;2023-03-14T00:19:59;8.93;;;0.88;;
53801;SDS011;39709;53.334;6.534;2023-03-14T00:22:33;6.90;;;1.25;;
53801;SDS011;39709;53.334;6.534;2023-03-14T00:24:59;11.70;;;1.40;;
53801;SDS011;39709;53.334;6.534;2023-03-14T00:27:25;10.27;;;1.15;;
53801;SDS011;39709;53.334;6.534;2023-03-14T00:29:51;9.50;;;1.27;;
53801;SDS011;39709;53.334;6.534;2023-03-14T00:32:17;14.63;;;1.80;;
53801;SDS011;39709;53.334;6.534;2023-03-14T00:34:43;12.93;;;1.60;;
53801;SDS011;39709;53.334;6.534;2023-03-14T00:37:08;9.27;;;1.40;;
53801;SDS011;39709;53.334;6.534;2023-03-14T00:39:34;15.20;;;1.85;;
53801;SDS011;39709;53.334;6.534;2023-03-14T00:42:00;8.40;;;1.63;;
53801;SDS011;39709;53.334;6.534;2023-03-14T00:44:25;9.25;;;0.95;;
53801;SDS011;39709;53.334;6.534;2023-03-14T00:46:51;8.95;;;1.83;;
53801;SDS011;39709;53.334;6.534;2023-03-14T00:49:17;8.47;;;1.37;;
53801;SDS011;39709;53.334;6.534;2023-03-14T00:51:43;11.60;;;1.73;;
53801;SDS011;39709;53.334;6.534;2023-03-14T00:54:08;10.57;;;1.27;;
53801;SDS011;39709;53.334;6.534;2023-03-14T00:56:34;7.72;;;1.38;;
53801;SDS011;39709;53.334;6.534;2023-03-14T00:59:00;7.53;;;1.20;;
53801;SDS011;39709;53.334;6.534;2023-03-14T01:01:26;9.35;;;1.65;;
53801;SDS011;39709;53.334;6.534;2023-03-14T01:03:52;7.17;;;1.57;;
53801;SDS011;39709;53.334;6.534;2023-03-14T01:06:20;5.30;;;0.77;;
53801;SDS011;39709;53.334;6.534;2023-03-14T01:08:48;7.13;;;1.00;;
53801;SDS011;39709;53.334;6.534;2023-03-14T01:11:15;13.57;;;1.83;;
53801;SDS011;39709;53.334;6.534;2023-03-14T01:13:42;12.38;;;1.10;;
53801;SDS011;39709;53.334;6.534;2023-03-14T01:16:09;9.10;;;1.33;;
53801;SDS011;39709;53.334;6.534;2023-03-14T01:18:36;8.15;;;1.30;;
53801;SDS011;39709;53.334;6.534;2023-03-14T01:21:07;14.80;;;2.00;;
53801;SDS011;39709;53.334;6.534;2023-03-14T01:23:36;7.37;;;1.20;;
53801;SDS011;39709;53.334;6.534;2023-03-14T01:26:02;7.90;;;1.77;;
53801;SDS011;39709;53.334;6.534;2023-03-14T01:28:28;8.95;;;1.67;;
53801;SDS011;39709;53.334;6.534;2023-03-14T01:30:54;9.60;;;1.77;;
53801;SDS011;39709;53.334;6.534;2023-03-14T01:33:19;11.97;;;1.53;;
53801;SDS011;39709;53.334;6.534;2023-03-14T01:35:45;9.27;;;1.00;;
53801;SDS011;39709;53.334;6.534;2023-03-14T01:38:11;7.70;;;1.33;;
53801;SDS011;39709;53.334;6.534;2023-03-14T01:40:43;14.60;;;1.95;;
53801;SDS011;39709;53.334;6.534;2023-03-14T01:43:14;10.48;;;1.77;;
53801;SDS011;39709;53.334;6.534;2023-03-14T01:48:31;12.77;;;1.65;;
53801;SDS011;39709;53.334;6.534;2023-03-14T01:51:38;10.88;;;2.53;;
53801;SDS011;39709;53.334;6.534;2023-03-14T01:54:42;10.43;;;1.00;;
53801;SDS011;39709;53.334;6.534;2023-03-14T01:57:14;9.32;;;1.00;;
53801;SDS011;39709;53.334;6.534;2023-03-14T01:59:52;7.97;;;1.57;;
53801;SDS011;39709;53.334;6.534;2023-03-14T02:02:23;11.95;;;1.60;;
53801;SDS011;39709;53.334;6.534;2023-03-14T02:04:52;4.97;;;0.88;;
53801;SDS011;39709;53.334;6.534;2023-03-14T02:07:24;10.00;;;1.67;;
53801;SDS011;39709;53.334;6.534;2023-03-14T02:09:57;7.18;;;1.40;;
53801;SDS011;39709;53.334;6.534;2023-03-14T02:12:25;8.30;;;1.20;;
53801;SDS011;39709;53.334;6.534;2023-03-14T02:14:51;10.07;;;2.15;;
53801;SDS011;39709;53.334;6.534;2023-03-14T02:17:18;8.57;;;1.63;;
53801;SDS011;39709;53.334;6.534;2023-03-14T02:22:30;6.13;;;1.13;;
53801;SDS011;39709;53.334;6.534;2023-03-14T02:27:41;5.63;;;0.80;;
53801;SDS011;39709;53.334;6.534;2023-03-14T02:30:28;12.05;;;1.58;;
53801;SDS011;39709;53.334;6.534;2023-03-14T02:32:56;2.88;;;0.73;;
53801;SDS011;39709;53.334;6.534;2023-03-14T02:35:26;5.67;;;1.40;;
53801;SDS011;39709;53.334;6.534;2023-03-14T02:40:31;7.07;;;0.95;;
53801;SDS011;39709;53.334;6.534;2023-03-14T02:42:57;6.10;;;1.20;;
53801;SDS011;39709;53.334;6.534;2023-03-14T02:47:59;4.63;;;0.40;;
53801;SDS011;39709;53.334;6.534;2023-03-14T02:50:30;3.90;;;0.77;;
53801;SDS011;39709;53.334;6.534;2023-03-14T02:52:59;8.43;;;1.38;;
53801;SDS011;39709;53.334;6.534;2023-03-14T02:55:25;8.70;;;1.00;;
53801;SDS011;39709;53.334;6.534;2023-03-14T02:57:51;4.67;;;0.80;;
53801;SDS011;39709;53.334;6.534;2023-03-14T03:00:18;8.73;;;1.30;;
53801;SDS011;39709;53.334;6.534;2023-03-14T03:02:44;7.00;;;0.77;;
53801;SDS011;39709;53.334;6.534;2023-03-14T03:05:10;7.18;;;1.08;;
53801;SDS011;39709;53.334;6.534;2023-03-14T03:07:36;6.65;;;0.90;;
53801;SDS011;39709;53.334;6.534;2023-03-14T03:10:02;5.57;;;1.00;;
53801;SDS011;39709;53.334;6.534;2023-03-14T03:12:28;5.88;;;1.58;;
53801;SDS011;39709;53.334;6.534;2023-03-14T03:14:54;7.03;;;2.10;;
53801;SDS011;39709;53.334;6.534;2023-03-14T03:17:20;7.13;;;1.30;;
53801;SDS011;39709;53.334;6.534;2023-03-14T03:19:45;5.70;;;0.87;;
53801;SDS011;39709;53.334;6.534;2023-03-14T03:22:11;4.07;;;0.73;;
53801;SDS011;39709;53.334;6.534;2023-03-14T03:24:37;8.07;;;1.87;;
53801;SDS011;39709;53.334;6.534;2023-03-14T03:27:03;9.95;;;1.85;;
53801;SDS011;39709;53.334;6.534;2023-03-14T03:29:28;5.13;;;0.63;;
53801;SDS011;39709;53.334;6.534;2023-03-14T03:31:55;7.78;;;1.00;;
53801;SDS011;39709;53.334;6.534;2023-03-14T03:34:20;6.30;;;1.27;;
53801;SDS011;39709;53.334;6.534;2023-03-14T03:36:46;9.25;;;1.42;;
53801;SDS011;39709;53.334;6.534;2023-03-14T03:39:12;6.07;;;1.07;;
53801;SDS011;39709;53.334;6.534;2023-03-14T03:41:38;3.83;;;0.70;;
53801;SDS011;39709;53.334;6.534;2023-03-14T03:44:04;6.57;;;1.10;;
53801;SDS011;39709;53.334;6.534;2023-03-14T03:46:31;8.80;;;1.10;;
53801;SDS011;39709;53.334;6.534;2023-03-14T03:48:57;8.43;;;1.10;;
53801;SDS011;39709;53.334;6.534;2023-03-14T03:51:24;8.15;;;1.20;;
53801;SDS011;39709;53.334;6.534;2023-03-14T03:53:50;7.30;;;0.75;;
53801;SDS011;39709;53.334;6.534;2023-03-14T03:56:16;9.53;;;1.60;;
53801;SDS011;39709;53.334;6.534;2023-03-14T03:58:42;6.25;;;0.77;;
53801;SDS011;39709;53.334;6.534;2023-03-14T04:01:08;3.90;;;0.70;;
53801;SDS011;39709;53.334;6.534;2023-03-14T04:03:34;9.60;;;1.33;;
53801;SDS011;39709;53.334;6.534;2023-03-14T04:06:01;3.88;;;0.73;;
53801;SDS011;39709;53.334;6.534;2023-03-14T04:08:30;6.15;;;1.27;;
53801;SDS011;39709;53.334;6.534;2023-03-14T04:10:57;6.72;;;0.88;;
53801;SDS011;39709;53.334;6.534;2023-03-14T04:13:24;7.50;;;1.10;;
53801;SDS011;39709;53.334;6.534;2023-03-14T04:15:51;6.40;;;1.10;;
53801;SDS011;39709;53.334;6.534;2023-03-14T04:18:17;7.28;;;1.15;;
53801;SDS011;39709;53.334;6.534;2023-03-14T04:20:43;8.55;;;1.20;;
53801;SDS011;39709;53.334;6.534;2023-03-14T04:23:09;3.58;;;0.60;;
53801;SDS011;39709;53.334;6.534;2023-03-14T04:25:35;3.67;;;0.60;;
53801;SDS011;39709;53.334;6.534;2023-03-14T04:28:01;5.22;;;0.63;;
53801;SDS011;39709;53.334;6.534;2023-03-14T04:30:29;10.98;;;1.42;;
53801;SDS011;39709;53.334;6.534;2023-03-14T04:32:54;11.00;;;1.53;;
53801;SDS011;39709;53.334;6.534;2023-03-14T04:35:20;4.57;;;0.80;;
53801;SDS011;39709;53.334;6.534;2023-03-14T04:37:46;7.95;;;1.17;;
53801;SDS011;39709;53.334;6.534;2023-03-14T04:40:14;6.53;;;0.90;;
53801;SDS011;39709;53.334;6.534;2023-03-14T04:42:40;8.35;;;1.20;;
53801;SDS011;39709;53.334;6.534;2023-03-14T04:45:06;7.47;;;1.17;;
53801;SDS011;39709;53.334;6.534;2023-03-14T04:47:33;5.40;;;0.95;;
53801;SDS011;39709;53.334;6.534;2023-03-14T04:49:59;6.63;;;0.82;;
53801;SDS011;39709;53.334;6.534;2023-03-14T04:52:25;5.60;;;0.60;;
53801;SDS011;39709;53.334;6.534;2023-03-14T04:54:51;7.20;;;1.30;;
53801;SDS011;39709;53.334;6.534;2023-03-14T04:57:17;8.70;;;1.07;;
53801;SDS011;39709;53.334;6.534;2023-03-14T04:59:42;6.68;;;0.80;;
53801;SDS011;39709;53.334;6.534;2023-03-14T05:02:08;4.65;;;0.70;;
53801;SDS011;39709;53.334;6.534;2023-03-14T05:04:34;5.23;;;1.23;;
53801;SDS011;39709;53.334;6.534;2023-03-14T05:07:00;5.93;;;0.95;;
53801;SDS011;39709;53.334;6.534;2023-03-14T05:09:26;5.50;;;1.10;;
53801;SDS011;39709;53.334;6.534;2023-03-14T05:11:52;6.28;;;0.82;;
53801;SDS011;39709;53.334;6.534;2023-03-14T05:14:17;8.32;;;1.40;;
53801;SDS011;39709;53.334;6.534;2023-03-14T05:16:43;2.47;;;0.40;;
53801;SDS011;39709;53.334;6.534;2023-03-14T05:19:09;9.98;;;0.93;;
53801;SDS011;39709;53.334;6.534;2023-03-14T05:21:35;5.45;;;0.70;;
53801;SDS011;39709;53.334;6.534;2023-03-14T05:24:02;4.70;;;1.03;;
53801;SDS011;39709;53.334;6.534;2023-03-14T05:26:27;4.72;;;0.70;;
53801;SDS011;39709;53.334;6.534;2023-03-14T05:28:53;6.03;;;1.00;;
53801;SDS011;39709;53.334;6.534;2023-03-14T05:31:19;5.90;;;0.80;;
53801;SDS011;39709;53.334;6.534;2023-03-14T05:33:45;3.63;;;0.88;;
53801;SDS011;39709;53.334;6.534;2023-03-14T05:36:11;5.22;;;0.95;;
53801;SDS011;39709;53.334;6.534;2023-03-14T05:38:37;9.53;;;1.10;;
53801;SDS011;39709;53.334;6.534;2023-03-14T05:41:02;6.05;;;0.68;;
53801;SDS011;39709;53.334;6.534;2023-03-14T05:43:28;3.47;;;0.43;;
53801;SDS011;39709;53.334;6.534;2023-03-14T05:45:54;3.88;;;1.20;;
53801;SDS011;39709;53.334;6.534;2023-03-14T05:48:20;3.65;;;0.60;;
53801;SDS011;39709;53.334;6.534;2023-03-14T05:50:47;3.70;;;0.90;;
53801;SDS011;39709;53.334;6.534;2023-03-14T05:53:13;4.03;;;0.73;;
53801;SDS011;39709;53.334;6.534;2023-03-14T05:55:39;6.03;;;1.10;;
53801;SDS011;39709;53.334;6.534;2023-03-14T05:58:05;3.63;;;0.95;;
53801;SDS011;39709;53.334;6.534;2023-03-14T06:00:31;4.00;;;0.90;;
53801;SDS011;39709;53.334;6.534;2023-03-14T06:02:59;8.00;;;1.00;;
53801;SDS011;39709;53.334;6.534;2023-03-14T06:05:25;4.88;;;0.73;;
53801;SDS011;39709;53.334;6.534;2023-03-14T06:07:51;5.60;;;1.10;;
53801;SDS011;39709;53.334;6.534;2023-03-14T06:10:16;8.82;;;1.42;;
53801;SDS011;39709;53.334;6.534;2023-03-14T06:12:42;7.53;;;1.20;;
53801;SDS011;39709;53.334;6.534;2023-03-14T06:15:08;5.43;;;1.03;;
53801;SDS011;39709;53.334;6.534;2023-03-14T06:17:34;5.25;;;0.60;;
53801;SDS011;39709;53.334;6.534;2023-03-14T06:19:59;3.35;;;0.47;;
53801;SDS011;39709;53.334;6.534;2023-03-14T06:22:25;8.27;;;1.03;;
53801;SDS011;39709;53.334;6.534;2023-03-14T06:24:51;8.30;;;1.15;;
53801;SDS011;39709;53.334;6.534;2023-03-14T06:27:17;8.43;;;0.87;;
53801;SDS011;39709;53.334;6.534;2023-03-14T06:29:42;21.05;;;2.63;;
53801;SDS011;39709;53.334;6.534;2023-03-14T06:32:08;11.40;;;1.37;;
53801;SDS011;39709;53.334;6.534;2023-03-14T06:34:34;23.75;;;1.85;;
53801;SDS011;39709;53.334;6.534;2023-03-14T06:37:00;25.53;;;2.43;;
53801;SDS011;39709;53.334;6.534;2023-03-14T06:39:25;23.30;;;1.80;;
53801;SDS011;39709;53.334;6.534;2023-03-14T06:41:51;15.87;;;1.23;;
53801;SDS011;39709;53.334;6.534;2023-03-14T06:44:17;20.63;;;1.77;;
53801;SDS011;39709;53.334;6.534;2023-03-14T06:46:42;18.05;;;1.10;;
53801;SDS011;39709;53.334;6.534;2023-03-14T06:49:08;18.50;;;1.47;;
53801;SDS011;39709;53.334;6.534;2023-03-14T06:51:34;18.83;;;1.52;;
53801;SDS011;39709;53.334;6.534;2023-03-14T06:54:00;15.82;;;1.75;;
53801;SDS011;39709;53.334;6.534;2023-03-14T06:56:25;15.70;;;1.23;;
53801;SDS011;39709;53.334;6.534;2023-03-14T06:58:51;24.03;;;1.63;;
53801;SDS011;39709;53.334;6.534;2023-03-14T07:01:24;12.85;;;1.13;;
53801;SDS011;39709;53.334;6.534;2023-03-14T07:03:54;14.55;;;1.08;;
53801;SDS011;39709;53.334;6.534;2023-03-14T07:06:21;10.67;;;0.73;;
53801;SDS011;39709;53.334;6.534;2023-03-14T07:08:47;14.95;;;0.90;;
53801;SDS011;39709;53.334;6.534;2023-03-14T07:11:13;9.27;;;0.50;;
53801;SDS011;39709;53.334;6.534;2023-03-14T07:13:39;7.47;;;0.50;;
53801;SDS011;39709;53.334;6.534;2023-03-14T07:16:05;8.60;;;0.50;;
53801;SDS011;39709;53.334;6.534;2023-03-14T07:18:32;9.23;;;0.38;;
53801;SDS011;39709;53.334;6.534;2023-03-14T07:20:57;7.57;;;0.35;;
53801;SDS011;39709;53.334;6.534;2023-03-14T07:23:23;7.57;;;0.37;;
53801;SDS011;39709;53.334;6.534;2023-03-14T07:25:50;7.53;;;0.40;;
53801;SDS011;39709;53.334;6.534;2023-03-14T07:28:16;8.52;;;0.60;;
53801;SDS011;39709;53.334;6.534;2023-03-14T07:30:42;6.72;;;0.32;;
53801;SDS011;39709;53.334;6.534;2023-03-14T07:33:08;4.73;;;0.30;;
53801;SDS011;39709;53.334;6.534;2023-03-14T07:35:33;6.63;;;0.32;;
53801;SDS011;39709;53.334;6.534;2023-03-14T07:37:59;8.13;;;0.53;;
53801;SDS011;39709;53.334;6.534;2023-03-14T07:40:25;8.38;;;0.40;;
53801;SDS011;39709;53.334;6.534;2023-03-14T07:42:50;6.47;;;0.40;;
53801;SDS011;39709;53.334;6.534;2023-03-14T07:45:20;4.55;;;0.20;;
53801;SDS011;39709;53.334;6.534;2023-03-14T07:47:46;5.95;;;0.30;;
53801;SDS011;39709;53.334;6.534;2023-03-14T07:50:11;6.57;;;0.40;;
53801;SDS011;39709;53.334;6.534;2023-03-14T07:52:37;6.93;;;0.60;;
53801;SDS011;39709;53.334;6.534;2023-03-14T07:55:03;9.53;;;0.60;;
53801;SDS011;39709;53.334;6.534;2023-03-14T07:57:29;8.13;;;0.40;;
53801;SDS011;39709;53.334;6.534;2023-03-14T07:59:55;7.97;;;0.40;;
53801;SDS011;39709;53.334;6.534;2023-03-14T08:02:20;7.72;;;0.55;;
53801;SDS011;39709;53.334;6.534;2023-03-14T08:04:48;6.07;;;0.60;;
53801;SDS011;39709;53.334;6.534;2023-03-14T08:07:14;6.60;;;0.50;;
53801;SDS011;39709;53.334;6.534;2023-03-14T08:09:40;5.78;;;0.40;;
53801;SDS011;39709;53.334;6.534;2023-03-14T08:12:06;8.30;;;0.70;;
53801;SDS011;39709;53.334;6.534;2023-03-14T08:14:32;13.53;;;1.00;;
53801;SDS011;39709;53.334;6.534;2023-03-14T08:16:57;9.05;;;0.82;;
53801;SDS011;39709;53.334;6.534;2023-03-14T08:19:23;9.83;;;0.70;;
53801;SDS011;39709;53.334;6.534;2023-03-14T08:21:49;7.82;;;0.93;;
53801;SDS011;39709;53.334;6.534;2023-03-14T08:24:15;12.63;;;1.40;;
53801;SDS011;39709;53.334;6.534;2023-03-14T08:26:41;11.98;;;0.95;;
53801;SDS011;39709;53.334;6.534;2023-03-14T08:29:07;10.80;;;0.60;;
53801;SDS011;39709;53.334;6.534;2023-03-14T08:31:34;13.27;;;1.63;;
53801;SDS011;39709;53.334;6.534;2023-03-14T08:34:00;10.80;;;0.93;;
53801;SDS011;39709;53.334;6.534;2023-03-14T08:36:27;18.85;;;1.60;;
53801;SDS011;39709;53.334;6.534;2023-03-14T08:38:53;16.02;;;1.67;;
53801;SDS011;39709;53.334;6.534;2023-03-14T08:41:19;16.75;;;2.25;;
53801;SDS011;39709;53.334;6.534;2023-03-14T08:43:45;16.10;;;2.10;;
53801;SDS011;39709;53.334;6.534;2023-03-14T08:46:11;15.98;;;1.27;;
53801;SDS011;39709;53.334;6.534;2023-03-14T08:48:36;17.67;;;1.70;;
53801;SDS011;39709;53.334;6.534;2023-03-14T08:51:06;17.42;;;1.63;;
53801;SDS011;39709;53.334;6.534;2023-03-14T08:53:37;18.02;;;2.42;;
53801;SDS011;39709;53.334;6.534;2023-03-14T08:56:03;17.45;;;1.88;;
53801;SDS011;39709;53.334;6.534;2023-03-14T08:58:31;21.13;;;1.80;;
53801;SDS011;39709;53.334;6.534;2023-03-14T09:00:57;16.85;;;2.00;;
53801;SDS011;39709;53.334;6.534;2023-03-14T09:03:23;15.20;;;1.80;;
53801;SDS011;39709;53.334;6.534;2023-03-14T09:05:49;18.73;;;2.17;;
53801;SDS011;39709;53.334;6.534;2023-03-14T09:08:16;22.23;;;2.40;;
53801;SDS011;39709;53.334;6.534;2023-03-14T09:10:41;17.60;;;2.25;;
53801;SDS011;39709;53.334;6.534;2023-03-14T09:13:07;21.33;;;2.23;;
53801;SDS011;39709;53.334;6.534;2023-03-14T09:15:33;22.25;;;1.73;;
53801;SDS011;39709;53.334;6.534;2023-03-14T09:17:58;17.20;;;2.40;;
53801;SDS011;39709;53.334;6.534;2023-03-14T09:20:24;13.60;;;1.45;;
53801;SDS011;39709;53.334;6.534;2023-03-14T09:22:50;19.37;;;2.30;;
53801;SDS011;39709;53.334;6.534;2023-03-14T09:25:16;23.00;;;2.70;;
53801;SDS011;39709;53.334;6.534;2023-03-14T09:27:41;18.33;;;2.30;;
53801;SDS011;39709;53.334;6.534;2023-03-14T09:30:07;17.13;;;1.38;;
53801;SDS011;39709;53.334;6.534;2023-03-14T09:32:34;16.33;;;1.83;;
53801;SDS011;39709;53.334;6.534;2023-03-14T09:34:59;17.30;;;2.30;;
53801;SDS011;39709;53.334;6.534;2023-03-14T09:37:25;10.80;;;1.20;;
53801;SDS011;39709;53.334;6.534;2023-03-14T09:39:51;14.15;;;1.50;;
53801;SDS011;39709;53.334;6.534;2023-03-14T09:42:17;18.87;;;2.07;;
53801;SDS011;39709;53.334;6.534;2023-03-14T09:47:19;19.88;;;3.33;;
53801;SDS011;39709;53.334;6.534;2023-03-14T09:49:47;17.50;;;1.30;;
53801;SDS011;39709;53.334;6.534;2023-03-14T09:52:14;17.95;;;2.20;;
53801;SDS011;39709;53.334;6.534;2023-03-14T09:57:14;23.47;;;2.20;;
53801;SDS011;39709;53.334;6.534;2023-03-14T09:59:43;16.38;;;1.42;;
53801;SDS011;39709;53.334;6.534;2023-03-14T10:04:42;21.92;;;2.55;;
53801;SDS011;39709;53.334;6.534;2023-03-14T10:07:14;13.93;;;2.00;;
53801;SDS011;39709;53.334;6.534;2023-03-14T10:09:45;14.52;;;1.63;;
53801;SDS011;39709;53.334;6.534;2023-03-14T10:12:13;16.38;;;1.83;;
53801;SDS011;39709;53.334;6.534;2023-03-14T10:14:44;12.20;;;1.25;;
53801;SDS011;39709;53.334;6.534;2023-03-14T10:17:13;15.30;;;1.83;;
53801;SDS011;39709;53.334;6.534;2023-03-14T10:19:50;17.35;;;1.70;;
53801;SDS011;39709;53.334;6.534;2023-03-14T10:22:16;17.60;;;1.85;;
53801;SDS011;39709;53.334;6.534;2023-03-14T10:24:46;13.45;;;1.40;;
53801;SDS011;39709;53.334;6.534;2023-03-14T10:27:29;11.05;;;1.10;;
53801;SDS011;39709;53.334;6.534;2023-03-14T10:30:03;13.17;;;1.57;;
53801;SDS011;39709;53.334;6.534;2023-03-14T10:32:35;15.35;;;1.58;;
53801;SDS011;39709;53.334;6.534;2023-03-14T10:35:24;13.88;;;1.50;;
53801;SDS011;39709;53.334;6.534;2023-03-14T10:40:14;10.53;;;1.47;;
53801;SDS011;39709;53.334;6.534;2023-03-14T10:42:42;16.38;;;1.58;;
53801;SDS011;39709;53.334;6.534;2023-03-14T10:47:50;13.65;;;1.73;;
53801;SDS011;39709;53.334;6.534;2023-03-14T10:50:27;9.93;;;1.30;;
53801;SDS011;39709;53.334;6.534;2023-03-14T10:52:54;11.18;;;1.20;;
53801;SDS011;39709;53.334;6.534;2023-03-14T10:55:23;15.02;;;1.40;;
53801;SDS011;39709;53.334;6.534;2023-03-14T10:57:50;12.55;;;0.88;;
53801;SDS011;39709;53.334;6.534;2023-03-14T11:00:20;8.35;;;0.63;;
53801;SDS011;39709;53.334;6.534;2023-03-14T11:05:30;10.70;;;1.30;;
53801;SDS011;39709;53.334;6.534;2023-03-14T11:08:18;9.15;;;0.75;;
53801;SDS011;39709;53.334;6.534;2023-03-14T11:10:47;4.70;;;0.70;;
53801;SDS011;39709;53.334;6.534;2023-03-14T11:16:26;7.90;;;0.73;;
53801;SDS011;39709;53.334;6.534;2023-03-14T11:26:52;8.40;;;1.00;;
53801;SDS011;39709;53.334;6.534;2023-03-14T11:35:17;6.18;;;0.52;;
53801;SDS011;39709;53.334;6.534;2023-03-14T11:37:46;8.20;;;1.25;;
53801;SDS011;39709;53.334;6.534;2023-03-14T11:40:22;9.23;;;0.95;;
53801;SDS011;39709;53.334;6.534;2023-03-14T11:45:38;11.40;;;0.82;;
53801;SDS011;39709;53.334;6.534;2023-03-14T11:50:35;11.68;;;1.58;;
53801;SDS011;39709;53.334;6.534;2023-03-14T11:53:09;5.07;;;0.75;;
53801;SDS011;39709;53.334;6.534;2023-03-14T11:55:42;7.17;;;0.70;;
53801;SDS011;39709;53.334;6.534;2023-03-14T11:58:20;8.27;;;0.80;;
53801;SDS011;39709;53.334;6.534;2023-03-14T12:00:54;9.60;;;0.80;;
53801;SDS011;39709;53.334;6.534;2023-03-14T12:09:20;9.37;;;1.00;;
53801;SDS011;39709;53.334;6.534;2023-03-14T12:11:50;7.15;;;0.68;;
53801;SDS011;39709;53.334;6.534;2023-03-14T12:16:58;14.60;;;1.42;;
53801;SDS011;39709;53.334;6.534;2023-03-14T12:19:29;13.15;;;1.67;;
53801;SDS011;39709;53.334;6.534;2023-03-14T12:22:23;10.57;;;1.60;;
53801;SDS011;39709;53.334;6.534;2023-03-14T12:24:57;8.63;;;1.10;;
53801;SDS011;39709;53.334;6.534;2023-03-14T12:30:44;15.52;;;1.13;;
53801;SDS011;39709;53.334;6.534;2023-03-14T12:38:06;11.93;;;1.23;;
53801;SDS011;39709;53.334;6.534;2023-03-14T12:40:47;7.32;;;0.75;;
53801;SDS011;39709;53.334;6.534;2023-03-14T12:43:26;11.68;;;0.90;;
53801;SDS011;39709;53.334;6.534;2023-03-14T12:49:16;8.70;;;0.60;;
53801;SDS011;39709;53.334;6.534;2023-03-14T12:59:32;7.28;;;0.60;;
53801;SDS011;39709;53.334;6.534;2023-03-14T13:04:34;13.13;;;0.90;;
53801;SDS011;39709;53.334;6.534;2023-03-14T13:12:42;8.80;;;0.87;;
53801;SDS011;39709;53.334;6.534;2023-03-14T13:15:17;5.50;;;0.50;;
53801;SDS011;39709;53.334;6.534;2023-03-14T13:17:52;6.53;;;0.50;;
53801;SDS011;39709;53.334;6.534;2023-03-14T13:20:30;10.43;;;1.02;;
53801;SDS011;39709;53.334;6.534;2023-03-14T13:23:01;8.00;;;0.60;;
53801;SDS011;39709;53.334;6.534;2023-03-14T13:25:32;9.95;;;0.68;;
53801;SDS011;39709;53.334;6.534;2023-03-14T13:27:59;7.03;;;0.68;;
53801;SDS011;39709;53.334;6.534;2023-03-14T13:30:27;6.07;;;0.57;;
53801;SDS011;39709;53.334;6.534;2023-03-14T13:33:02;11.27;;;0.98;;
53801;SDS011;39709;53.334;6.534;2023-03-14T13:35:29;10.75;;;1.00;;
53801;SDS011;39709;53.334;6.534;2023-03-14T13:38:19;10.27;;;0.75;;
53801;SDS011;39709;53.334;6.534;2023-03-14T13:40:48;10.30;;;0.75;;
53801;SDS011;39709;53.334;6.534;2023-03-14T13:43:25;6.27;;;0.60;;
53801;SDS011;39709;53.334;6.534;2023-03-14T13:48:27;13.30;;;0.90;;
53801;SDS011;39709;53.334;6.534;2023-03-14T13:50:56;7.47;;;0.80;;
53801;SDS011;39709;53.334;6.534;2023-03-14T13:53:47;7.57;;;0.57;;
53801;SDS011;39709;53.334;6.534;2023-03-14T13:56:15;11.70;;;1.17;;
53801;SDS011;39709;53.334;6.534;2023-03-14T13:58:41;12.70;;;0.85;;
53801;SDS011;39709;53.334;6.534;2023-03-14T14:03:58;4.88;;;0.40;;
53801;SDS011;39709;53.334;6.534;2023-03-14T14:09:02;6.20;;;0.50;;
53801;SDS011;39709;53.334;6.534;2023-03-14T14:14:31;5.07;;;0.35;;
53801;SDS011;39709;53.334;6.534;2023-03-14T14:17:01;7.05;;;0.73;;
53801;SDS011;39709;53.334;6.534;2023-03-14T14:19:33;9.77;;;0.43;;
53801;SDS011;39709;53.334;6.534;2023-03-14T14:22:00;9.77;;;0.53;;
53801;SDS011;39709;53.334;6.534;2023-03-14T14:24:28;8.30;;;0.60;;
53801;SDS011;39709;53.334;6.534;2023-03-14T14:27:07;8.10;;;0.90;;
53801;SDS011;39709;53.334;6.534;2023-03-14T14:29:42;6.30;;;0.60;;
53801;SDS011;39709;53.334;6.534;2023-03-14T14:37:48;12.85;;;0.85;;
53801;SDS011;39709;53.334;6.534;2023-03-14T14:42:45;12.00;;;0.65;;
53801;SDS011;39709;53.334;6.534;2023-03-14T14:45:13;4.32;;;0.40;;
53801;SDS011;39709;53.334;6.534;2023-03-14T14:47:57;10.57;;;0.63;;
53801;SDS011;39709;53.334;6.534;2023-03-14T14:53:02;6.95;;;0.50;;
53801;SDS011;39709;53.334;6.534;2023-03-14T14:55:52;4.40;;;0.40;;
53801;SDS011;39709;53.334;6.534;2023-03-14T14:58:23;8.05;;;0.98;;
53801;SDS011;39709;53.334;6.534;2023-03-14T15:01:24;6.43;;;0.60;;
53801;SDS011;39709;53.334;6.534;2023-03-14T15:03:49;3.33;;;0.35;;
53801;SDS011;39709;53.334;6.534;2023-03-14T15:06:17;5.80;;;0.60;;
53801;SDS011;39709;53.334;6.534;2023-03-14T15:08:44;5.65;;;0.50;;
53801;SDS011;39709;53.334;6.534;2023-03-14T15:11:15;9.55;;;1.60;;
53801;SDS011;39709;53.334;6.534;2023-03-14T15:13:42;6.33;;;0.80;;
53801;SDS011;39709;53.334;6.534;2023-03-14T15:16:12;5.82;;;0.60;;
53801;SDS011;39709;53.334;6.534;2023-03-14T15:18:40;6.32;;;0.30;;
53801;SDS011;39709;53.334;6.534;2023-03-14T15:21:08;5.10;;;0.50;;
53801;SDS011;39709;53.334;6.534;2023-03-14T15:23:34;7.35;;;0.40;;
53801;SDS011;39709;53.334;6.534;2023-03-14T15:26:00;4.73;;;0.50;;
53801;SDS011;39709;53.334;6.534;2023-03-14T15:28:27;4.93;;;0.60;;
53801;SDS011;39709;53.334;6.534;2023-03-14T15:30:57;11.73;;;0.77;;
53801;SDS011;39709;53.334;6.534;2023-03-14T15:33:24;5.65;;;0.75;;
53801;SDS011;39709;53.334;6.534;2023-03-14T15:35:51;6.35;;;0.80;;
53801;SDS011;39709;53.334;6.534;2023-03-14T15:38:18;6.20;;;0.50;;
53801;SDS011;39709;53.334;6.534;2023-03-14T15:40:47;3.05;;;0.25;;
53801;SDS011;39709;53.334;6.534;2023-03-14T15:43:14;6.73;;;0.60;;
53801;SDS011;39709;53.334;6.534;2023-03-14T15:45:40;8.80;;;1.35;;
53801;SDS011;39709;53.334;6.534;2023-03-14T15:48:06;5.90;;;0.40;;
53801;SDS011;39709;53.334;6.534;2023-03-14T15:50:44;5.15;;;0.40;;
53801;SDS011;39709;53.334;6.534;2023-03-14T15:53:10;4.43;;;0.60;;
53801;SDS011;39709;53.334;6.534;2023-03-14T15:55:36;4.90;;;0.60;;
53801;SDS011;39709;53.334;6.534;2023-03-14T15:58:02;8.25;;;1.05;;
53801;SDS011;39709;53.334;6.534;2023-03-14T16:00:28;9.35;;;0.70;;
53801;SDS011;39709;53.334;6.534;2023-03-14T16:02:54;8.35;;;0.47;;
53801;SDS011;39709;53.334;6.534;2023-03-14T16:05:20;3.77;;;0.30;;
53801;SDS011;39709;53.334;6.534;2023-03-14T16:07:46;6.22;;;0.55;;
53801;SDS011;39709;53.334;6.534;2023-03-14T16:10:12;12.63;;;1.10;;
53801;SDS011;39709;53.334;6.534;2023-03-14T16:12:39;7.68;;;0.68;;
53801;SDS011;39709;53.334;6.534;2023-03-14T16:15:05;7.00;;;1.03;;
53801;SDS011;39709;53.334;6.534;2023-03-14T16:17:31;5.97;;;0.68;;
53801;SDS011;39709;53.334;6.534;2023-03-14T16:19:57;10.32;;;0.70;;
53801;SDS011;39709;53.334;6.534;2023-03-14T16:22:23;9.73;;;0.73;;
53801;SDS011;39709;53.334;6.534;2023-03-14T16:24:49;11.32;;;1.05;;
53801;SDS011;39709;53.334;6.534;2023-03-14T16:27:15;9.38;;;0.75;;
53801;SDS011;39709;53.334;6.534;2023-03-14T16:29:41;8.17;;;0.60;;
53801;SDS011;39709;53.334;6.534;2023-03-14T16:32:07;8.27;;;0.77;;
53801;SDS011;39709;53.334;6.534;2023-03-14T16:34:33;13.07;;;1.20;;
53801;SDS011;39709;53.334;6.534;2023-03-14T16:37:02;10.27;;;0.80;;